Time,TemperatureF,DewpointF,PressureIn,WindDirection,WindDirectionDegrees,WindSpeedMPH,WindSpeedGustMPH,Humidity,HourlyPrecipIn,Conditions,Clouds,dailyrainin,SoftwareType,DateUTC
2013-07-05 00:03:00,63.9,58.3,29.98,NNW,336,0.0,0.0,82,0.00,,,0.00,VWS V12.07,2013-07-05 05:03:00,
2013-07-05 00:09:00,63.8,58.2,29.98,NNW,336,0.0,0.0,82,0.00,,,0.00,VWS V12.07,2013-07-05 05:09:00,
2013-07-05 00:14:00,63.6,58.3,29.98,NNW,336,0.0,0.0,83,0.00,,,0.00,VWS V12.07,2013-07-05 05:14:00,
2013-07-05 00:24:00,63.5,58.2,29.98,NNW,336,0.0,0.0,83,0.00,,,0.00,VWS V12.07,2013-07-05 05:24:00,
2013-07-05 00:29:00,63.4,58.2,29.98,NNW,336,0.0,0.0,83,0.00,,,0.00,VWS V12.07,2013-07-05 05:29:00,
2013-07-05 00:34:00,63.3,58.4,29.98,NNW,336,0.0,0.0,84,0.00,,,0.00,VWS V12.07,2013-07-05 05:34:00,
2013-07-05 00:44:00,63.2,58.3,29.98,NNW,336,0.0,0.0,84,0.00,,,0.00,VWS V12.07,2013-07-05 05:44:00,
2013-07-05 00:54:00,63.0,58.1,29.98,NNW,336,0.0,1.0,84,0.00,,,0.00,VWS V12.07,2013-07-05 05:54:00,
2013-07-05 00:59:00,62.9,58.0,29.98,NNW,336,0.0,1.0,84,0.00,,,0.00,VWS V12.07,2013-07-05 05:59:00,
2013-07-05 01:04:00,62.8,57.9,29.98,NNW,336,0.0,0.0,84,0.00,,,0.00,VWS V12.07,2013-07-05 06:04:00,
2013-07-05 01:09:00,62.8,57.9,29.98,NNW,336,0.0,0.0,84,0.00,,,0.00,VWS V12.07,2013-07-05 06:09:00,
2013-07-05 01:19:00,62.7,57.8,29.98,NNW,336,0.0,1.0,84,0.00,,,0.00,VWS V12.07,2013-07-05 06:19:00,
2013-07-05 01:24:00,62.7,57.8,29.99,NNW,336,0.0,1.0,84,0.00,,,0.00,VWS V12.07,2013-07-05 06:24:00,
2013-07-05 01:29:00,62.7,57.8,29.99,NNW,336,0.0,1.0,84,0.00,,,0.00,VWS V12.07,2013-07-05 06:29:00,
2013-07-05 01:34:00,62.7,58.1,29.99,NNW,336,0.0,0.0,85,0.00,,,0.00,VWS V12.07,2013-07-05 06:34:00,
2013-07-05 01:39:00,62.7,58.1,29.99,NNW,336,0.0,1.0,85,0.00,,,0.00,VWS V12.07,2013-07-05 06:39:00,
2013-07-05 01:44:00,62.7,58.1,29.99,NNW,336,0.0,1.0,85,0.00,,,0.00,VWS V12.07,2013-07-05 06:44:00,
2013-07-05 01:48:00,62.7,58.1,29.99,NNW,336,0.0,1.0,85,0.00,,,0.00,VWS V12.07,2013-07-05 06:48:00,
2013-07-05 01:54:00,62.8,58.2,29.99,NNW,336,0.0,1.0,85,0.00,,,0.00,VWS V12.07,2013-07-05 06:54:00,
2013-07-05 01:59:00,62.9,58.3,29.99,NNW,336,0.0,1.0,85,0.00,,,0.00,VWS V12.07,2013-07-05 06:59:00,
2013-07-05 02:04:00,62.9,58.3,29.99,West,279,0.0,0.0,85,0.00,,,0.00,VWS V12.07,2013-07-05 07:04:00,
2013-07-05 02:09:00,62.9,58.3,29.99,West,279,0.0,1.0,85,0.00,,,0.00,VWS V12.07,2013-07-05 07:09:00,
2013-07-05 02:14:00,62.9,58.3,29.99,WNW,284,0.0,2.0,85,0.00,,,0.00,VWS V12.07,2013-07-05 07:14:00,
2013-07-05 02:19:00,63.0,58.4,29.99,WNW,284,0.0,2.0,85,0.00,,,0.00,VWS V12.07,2013-07-05 07:19:00,
2013-07-05 02:24:00,62.9,58.3,29.98,WNW,284,0.0,2.0,85,0.00,,,0.00,VWS V12.07,2013-07-05 07:24:00,
2013-07-05 02:29:00,62.9,58.0,29.99,WNW,284,0.0,2.0,84,0.00,,,0.00,VWS V12.07,2013-07-05 07:29:00,
2013-07-05 02:39:00,62.8,58.2,29.98,WNW,284,0.0,1.0,85,0.00,,,0.00,VWS V12.07,2013-07-05 07:39:00,
2013-07-05 02:44:00,62.7,58.1,29.99,WNW,284,0.0,1.0,85,0.00,,,0.00,VWS V12.07,2013-07-05 07:44:00,
2013-07-05 02:49:00,62.6,58.0,29.98,WNW,284,0.0,1.0,85,0.00,,,0.00,VWS V12.07,2013-07-05 07:49:00,
2013-07-05 02:59:00,62.5,57.9,29.98,WNW,284,0.0,1.0,85,0.00,,,0.00,VWS V12.07,2013-07-05 07:59:00,
2013-07-05 03:09:00,62.4,57.8,29.98,WNW,284,0.0,0.0,85,0.00,,,0.00,VWS V12.07,2013-07-05 08:09:00,
2013-07-05 03:14:00,62.3,57.7,29.98,WNW,284,0.0,0.0,85,0.00,,,0.00,VWS V12.07,2013-07-05 08:14:00,
2013-07-05 03:19:00,62.2,57.6,29.98,WNW,284,0.0,0.0,85,0.00,,,0.00,VWS V12.07,2013-07-05 08:19:00,
2013-07-05 03:24:00,62.1,57.9,29.98,WNW,284,0.0,0.0,86,0.00,,,0.00,VWS V12.07,2013-07-05 08:24:00,
2013-07-05 03:29:00,62.0,57.8,29.98,WNW,284,0.0,1.0,86,0.00,,,0.00,VWS V12.07,2013-07-05 08:29:00,
2013-07-05 03:33:00,62.0,57.8,29.98,WNW,284,0.0,0.0,86,0.00,,,0.00,VWS V12.07,2013-07-05 08:33:00,
2013-07-05 03:38:00,62.0,57.8,29.98,WNW,284,0.0,0.0,86,0.00,,,0.00,VWS V12.07,2013-07-05 08:38:00,
2013-07-05 03:44:00,62.0,57.8,29.98,WNW,284,0.0,0.0,86,0.00,,,0.00,VWS V12.07,2013-07-05 08:44:00,
2013-07-05 03:49:00,61.9,57.7,29.98,WNW,284,0.0,0.0,86,0.00,,,0.00,VWS V12.07,2013-07-05 08:49:00,
2013-07-05 03:59:00,61.7,57.5,29.98,WNW,284,0.0,0.0,86,0.00,,,0.00,VWS V12.07,2013-07-05 08:59:00,
2013-07-05 04:14:00,61.4,57.5,29.98,WNW,284,0.0,0.0,87,0.00,,,0.00,VWS V12.07,2013-07-05 09:14:00,
2013-07-05 04:19:00,61.3,57.4,29.98,WNW,284,0.0,0.0,87,0.00,,,0.00,VWS V12.07,2013-07-05 09:19:00,
2013-07-05 04:24:00,61.2,57.3,29.98,WNW,284,0.0,0.0,87,0.00,,,0.00,VWS V12.07,2013-07-05 09:24:00,
2013-07-05 04:28:00,61.1,57.5,29.98,WNW,284,0.0,0.0,88,0.00,,,0.00,VWS V12.07,2013-07-05 09:28:00,
2013-07-05 04:39:00,60.9,57.3,29.98,WNW,284,0.0,0.0,88,0.00,,,0.00,VWS V12.07,2013-07-05 09:39:00,
2013-07-05 04:49:00,60.8,57.2,29.98,WNW,284,0.0,0.0,88,0.00,,,0.00,VWS V12.07,2013-07-05 09:49:00,
2013-07-05 04:54:00,60.7,57.1,29.98,WNW,284,0.0,0.0,88,0.00,,,0.00,VWS V12.07,2013-07-05 09:54:00,
2013-07-05 04:59:00,60.7,57.1,29.98,WNW,284,0.0,0.0,88,0.00,,,0.00,VWS V12.07,2013-07-05 09:59:00,
2013-07-05 05:09:00,60.6,57.0,29.98,WNW,284,0.0,0.0,88,0.00,,,0.00,VWS V12.07,2013-07-05 10:09:00,
2013-07-05 05:14:00,60.5,56.9,29.98,WNW,284,0.0,0.0,88,0.00,,,0.00,VWS V12.07,2013-07-05 10:14:00,
2013-07-05 05:24:00,60.4,57.2,29.98,WNW,284,0.0,0.0,89,0.00,,,0.00,VWS V12.07,2013-07-05 10:24:00,
2013-07-05 05:29:00,60.4,57.2,29.99,WNW,284,0.0,0.0,89,0.00,,,0.00,VWS V12.07,2013-07-05 10:29:00,
2013-07-05 05:34:00,60.4,57.2,29.99,WNW,284,0.0,0.0,89,0.00,,,0.00,VWS V12.07,2013-07-05 10:34:00,
2013-07-05 05:44:00,60.3,57.0,29.99,WNW,284,0.0,1.0,89,0.00,,,0.00,VWS V12.07,2013-07-05 10:44:00,
2013-07-05 05:49:00,60.4,57.2,29.99,WNW,284,0.0,1.0,89,0.00,,,0.00,VWS V12.07,2013-07-05 10:49:00,
2013-07-05 05:54:00,60.4,57.2,29.99,WNW,284,0.0,1.0,89,0.00,,,0.00,VWS V12.07,2013-07-05 10:54:00,
2013-07-05 06:04:00,60.5,57.2,29.99,WNW,284,0.0,0.0,89,0.00,,,0.00,VWS V12.07,2013-07-05 11:04:00,
2013-07-05 06:09:00,60.6,57.3,29.99,WNW,284,0.0,0.0,89,0.00,,,0.00,VWS V12.07,2013-07-05 11:09:00,
2013-07-05 06:14:00,60.7,57.4,29.99,WNW,284,0.0,0.0,89,0.00,,,0.00,VWS V12.07,2013-07-05 11:14:00,
2013-07-05 06:19:00,60.8,57.5,29.99,WNW,284,0.0,1.0,89,0.00,,,0.00,VWS V12.07,2013-07-05 11:19:00,
2013-07-05 06:24:00,61.0,57.7,29.99,WNW,284,0.0,1.0,89,0.00,,,0.00,VWS V12.07,2013-07-05 11:24:00,
2013-07-05 06:29:00,61.2,57.9,29.99,WNW,284,0.0,1.0,89,0.00,,,0.00,VWS V12.07,2013-07-05 11:29:00,
2013-07-05 06:34:00,61.4,58.1,29.99,WNW,284,0.0,0.0,89,0.00,,,0.00,VWS V12.07,2013-07-05 11:34:00,
2013-07-05 06:39:00,61.6,58.3,29.99,WNW,284,0.0,0.0,89,0.00,,,0.00,VWS V12.07,2013-07-05 11:39:00,
2013-07-05 06:44:00,61.7,58.4,29.99,WNW,284,0.0,0.0,89,0.00,,,0.00,VWS V12.07,2013-07-05 11:44:00,
2013-07-05 06:54:00,62.1,58.5,29.99,WNW,284,0.0,2.0,88,0.00,,,0.00,VWS V12.07,2013-07-05 11:54:00,
2013-07-05 06:59:00,62.2,58.6,29.99,WNW,284,0.0,2.0,88,0.00,,,0.00,VWS V12.07,2013-07-05 11:59:00,
2013-07-05 07:04:00,62.4,58.8,29.99,WNW,284,0.0,0.0,88,0.00,,,0.00,VWS V12.07,2013-07-05 12:04:00,
2013-07-05 07:09:00,62.7,59.1,29.99,WNW,284,0.0,1.0,88,0.00,,,0.00,VWS V12.07,2013-07-05 12:09:00,
2013-07-05 07:19:00,62.9,59.3,29.99,WNW,284,0.0,1.0,88,0.00,,,0.00,VWS V12.07,2013-07-05 12:19:00,
2013-07-05 07:24:00,63.0,59.4,29.99,WNW,284,0.0,1.0,88,0.00,,,0.00,VWS V12.07,2013-07-05 12:24:00,
2013-07-05 07:29:00,63.1,59.5,29.99,WNW,284,0.0,1.0,88,0.00,,,0.00,VWS V12.07,2013-07-05 12:29:00,
2013-07-05 07:34:00,63.3,59.4,29.99,WNW,284,0.0,0.0,87,0.00,,,0.00,VWS V12.07,2013-07-05 12:34:00,
2013-07-05 07:39:00,63.5,59.6,29.99,WNW,284,0.0,2.0,87,0.00,,,0.00,VWS V12.07,2013-07-05 12:39:00,
2013-07-05 07:44:00,63.8,59.9,30.00,WNW,284,0.0,2.0,87,0.00,,,0.00,VWS V12.07,2013-07-05 12:44:00,
2013-07-05 07:49:00,64.1,59.8,30.00,WNW,284,0.0,3.0,86,0.00,,,0.00,VWS V12.07,2013-07-05 12:49:00,
2013-07-05 07:54:00,64.3,60.3,30.00,WNW,284,0.0,3.0,87,0.00,,,0.00,VWS V12.07,2013-07-05 12:54:00,
2013-07-05 07:59:00,64.6,60.3,30.00,WNW,284,0.0,4.0,86,0.00,,,0.00,VWS V12.07,2013-07-05 12:59:00,
2013-07-05 08:04:00,64.8,60.2,30.00,WNW,284,0.0,1.0,85,0.00,,,0.00,VWS V12.07,2013-07-05 13:04:00,
2013-07-05 08:14:00,65.3,60.7,30.00,North,355,0.0,4.0,85,0.00,,,0.00,VWS V12.07,2013-07-05 13:14:00,
2013-07-05 08:19:00,65.5,60.9,30.00,North,355,0.0,4.0,85,0.00,,,0.00,VWS V12.07,2013-07-05 13:19:00,
2013-07-05 08:24:00,65.8,60.8,30.00,NW,323,0.0,4.0,84,0.00,,,0.00,VWS V12.07,2013-07-05 13:24:00,
2013-07-05 08:29:00,66.0,61.0,30.00,NW,323,0.0,4.0,84,0.00,,,0.00,VWS V12.07,2013-07-05 13:29:00,
2013-07-05 08:34:00,66.3,60.7,30.00,NW,315,0.0,1.0,82,0.00,,,0.00,VWS V12.07,2013-07-05 13:34:00,
2013-07-05 08:39:00,66.8,61.1,30.00,NW,304,0.0,4.0,82,0.00,,,0.00,VWS V12.07,2013-07-05 13:39:00,
2013-07-05 08:49:00,67.6,60.9,30.00,WNW,302,0.0,4.0,79,0.00,,,0.00,VWS V12.07,2013-07-05 13:49:00,
2013-07-05 08:59:00,68.6,61.8,30.00,WNW,302,0.0,4.0,79,0.00,,,0.00,VWS V12.07,2013-07-05 13:59:00,
2013-07-05 09:04:00,69.1,61.6,30.00,West,259,0.0,3.0,77,0.00,,,0.00,VWS V12.07,2013-07-05 14:04:00,
2013-07-05 09:18:00,70.3,62.0,30.00,WNW,296,0.0,4.0,75,0.00,,,0.00,VWS V12.07,2013-07-05 14:18:00,
2013-07-05 09:24:00,70.7,62.8,30.00,West,279,0.0,5.0,76,0.00,,,0.00,VWS V12.07,2013-07-05 14:24:00,
2013-07-05 09:34:00,71.3,62.6,29.99,NNW,327,0.0,2.0,74,0.00,,,0.00,VWS V12.07,2013-07-05 14:34:00,
2013-07-05 09:39:00,71.5,63.2,29.99,West,277,0.0,5.0,75,0.00,,,0.00,VWS V12.07,2013-07-05 14:39:00,
2013-07-05 09:44:00,71.8,63.1,29.99,WNW,289,0.0,5.0,74,0.00,,,0.00,VWS V12.07,2013-07-05 14:44:00,
2013-07-05 09:49:00,72.2,63.1,29.99,NW,313,0.0,5.0,73,0.00,,,0.00,VWS V12.07,2013-07-05 14:49:00,
2013-07-05 09:54:00,72.6,61.9,29.99,West,269,0.0,5.0,69,0.00,,,0.00,VWS V12.07,2013-07-05 14:54:00,
2013-07-05 09:59:00,73.0,61.8,29.99,WNW,295,2.0,5.0,68,0.00,,,0.00,VWS V12.07,2013-07-05 14:59:00,
2013-07-05 10:04:00,73.3,62.9,29.99,WNW,300,0.0,1.0,70,0.00,,,0.00,VWS V12.07,2013-07-05 15:04:00,
2013-07-05 10:14:00,74.0,61.9,29.99,WNW,287,2.0,5.0,66,0.00,,,0.00,VWS V12.07,2013-07-05 15:14:00,
2013-07-05 10:19:00,74.4,62.3,29.99,North,10,1.0,5.0,66,0.00,,,0.00,VWS V12.07,2013-07-05 15:19:00,
2013-07-05 10:29:00,75.3,62.3,29.98,West,280,1.0,10.0,64,0.00,,,0.00,VWS V12.07,2013-07-05 15:29:00,
2013-07-05 10:34:00,75.5,61.6,29.98,WNW,283,0.0,5.0,62,0.00,,,0.00,VWS V12.07,2013-07-05 15:34:00,
2013-07-05 10:39:00,75.8,62.8,29.98,West,261,4.0,5.0,64,0.00,,,0.00,VWS V12.07,2013-07-05 15:39:00,
2013-07-05 10:44:00,76.1,62.2,29.98,WSW,257,1.0,7.0,62,0.00,,,0.00,VWS V12.07,2013-07-05 15:44:00,
2013-07-05 10:49:00,76.4,62.0,29.98,North,350,0.0,7.0,61,0.00,,,0.00,VWS V12.07,2013-07-05 15:49:00,
2013-07-05 10:54:00,76.7,62.2,29.98,NW,323,1.0,7.0,61,0.00,,,0.00,VWS V12.07,2013-07-05 15:54:00,
2013-07-05 10:59:00,77.0,63.0,29.98,NE,36,4.0,7.0,62,0.00,,,0.00,VWS V12.07,2013-07-05 15:59:00,
2013-07-05 11:04:00,77.3,62.8,29.98,NW,317,0.0,2.0,61,0.00,,,0.00,VWS V12.07,2013-07-05 16:04:00,
2013-07-05 11:14:00,77.8,63.8,29.98,NNW,329,0.0,6.0,62,0.00,,,0.00,VWS V12.07,2013-07-05 16:14:00,
2013-07-05 11:19:00,78.2,64.1,29.98,NNE,17,5.0,6.0,62,0.00,,,0.00,VWS V12.07,2013-07-05 16:19:00,
2013-07-05 11:24:00,78.5,64.4,29.98,ENE,74,0.0,6.0,62,0.00,,,0.00,VWS V12.07,2013-07-05 16:24:00,
2013-07-05 11:29:00,78.7,64.1,29.98,NE,37,1.0,6.0,61,0.00,,,0.00,VWS V12.07,2013-07-05 16:29:00,
2013-07-05 11:39:00,79.5,63.4,29.97,NNE,15,0.0,6.0,58,0.00,,,0.00,VWS V12.07,2013-07-05 16:39:00,
2013-07-05 11:44:00,79.7,64.1,29.97,NNE,15,0.0,6.0,59,0.00,,,0.00,VWS V12.07,2013-07-05 16:44:00,
2013-07-05 11:49:00,79.8,62.7,29.97,NW,314,1.0,6.0,56,0.00,,,0.00,VWS V12.07,2013-07-05 16:49:00,
2013-07-05 11:59:00,79.8,64.2,29.97,NNW,346,0.0,6.0,59,0.00,,,0.00,VWS V12.07,2013-07-05 16:59:00,
2013-07-05 12:04:00,79.9,62.3,29.97,North,355,3.0,8.0,55,0.00,,,0.00,VWS V12.07,2013-07-05 17:04:00,
2013-07-05 12:09:00,80.0,61.9,29.97,East,86,2.0,9.0,54,0.00,,,0.00,VWS V12.07,2013-07-05 17:09:00,
2013-07-05 12:14:00,80.0,61.9,29.96,West,281,1.0,9.0,54,0.00,,,0.00,VWS V12.07,2013-07-05 17:14:00,
2013-07-05 12:19:00,80.2,61.0,29.96,North,360,0.0,9.0,52,0.00,,,0.00,VWS V12.07,2013-07-05 17:19:00,
2013-07-05 12:24:00,80.4,61.7,29.96,WNW,298,5.0,9.0,53,0.00,,,0.00,VWS V12.07,2013-07-05 17:24:00,
2013-07-05 12:34:00,80.3,63.2,29.96,North,360,0.0,4.0,56,0.00,,,0.00,VWS V12.07,2013-07-05 17:34:00,
2013-07-05 12:39:00,80.2,62.6,29.96,NNW,333,2.0,5.0,55,0.00,,,0.00,VWS V12.07,2013-07-05 17:39:00,
2013-07-05 12:44:00,80.3,62.7,29.96,NW,313,3.0,5.0,55,0.00,,,0.00,VWS V12.07,2013-07-05 17:44:00,
2013-07-05 12:49:00,80.5,62.9,29.95,NW,317,3.0,5.0,55,0.00,,,0.00,VWS V12.07,2013-07-05 17:49:00,
2013-07-05 12:54:00,80.6,63.0,29.95,WNW,284,1.0,6.0,55,0.00,,,0.00,VWS V12.07,2013-07-05 17:54:00,
2013-07-05 12:59:00,80.6,61.9,29.95,NW,319,1.0,11.0,53,0.00,,,0.00,VWS V12.07,2013-07-05 17:59:00,
2013-07-05 13:04:00,80.6,63.0,29.95,NW,306,4.0,4.0,55,0.00,,,0.00,VWS V12.07,2013-07-05 18:04:00,
2013-07-05 13:09:00,80.7,62.5,29.95,SE,130,1.0,5.0,54,0.00,,,0.00,VWS V12.07,2013-07-05 18:09:00,
2013-07-05 13:19:00,80.5,61.8,29.95,NNE,24,3.0,7.0,53,0.00,,,0.00,VWS V12.07,2013-07-05 18:19:00,
2013-07-05 13:24:00,80.6,61.4,29.95,NW,321,0.0,7.0,52,0.00,,,0.00,VWS V12.07,2013-07-05 18:24:00,
2013-07-05 13:29:00,80.6,61.9,29.95,NW,304,2.0,7.0,53,0.00,,,0.00,VWS V12.07,2013-07-05 18:29:00,
2013-07-05 13:34:00,80.4,61.2,29.95,North,350,1.0,3.0,52,0.00,,,0.00,VWS V12.07,2013-07-05 18:34:00,
2013-07-05 13:39:00,80.3,62.7,29.94,NNE,28,1.0,3.0,55,0.00,,,0.00,VWS V12.07,2013-07-05 18:39:00,
2013-07-05 13:44:00,80.2,62.6,29.94,NW,323,2.0,4.0,55,0.00,,,0.00,VWS V12.07,2013-07-05 18:44:00,
2013-07-05 13:49:00,80.0,60.8,29.94,North,355,0.0,5.0,52,0.00,,,0.00,VWS V12.07,2013-07-05 18:49:00,
2013-07-05 13:54:00,80.1,60.4,29.94,WNW,290,6.0,7.0,51,0.00,,,0.00,VWS V12.07,2013-07-05 18:54:00,
2013-07-05 13:59:00,80.2,61.5,29.94,North,9,0.0,8.0,53,0.00,,,0.00,VWS V12.07,2013-07-05 18:59:00,
2013-07-05 14:09:00,80.2,61.0,29.94,NNE,29,2.0,5.0,52,0.00,,,0.00,VWS V12.07,2013-07-05 19:09:00,
2013-07-05 14:14:00,80.5,60.7,29.94,NE,44,0.0,13.0,51,0.00,,,0.00,VWS V12.07,2013-07-05 19:14:00,
2013-07-05 14:19:00,80.8,61.5,29.94,NNW,333,0.0,13.0,52,0.00,,,0.00,VWS V12.07,2013-07-05 19:19:00,
2013-07-05 14:24:00,80.8,61.0,29.94,SE,140,1.0,13.0,51,0.00,,,0.00,VWS V12.07,2013-07-05 19:24:00,
2013-07-05 14:29:00,80.8,62.1,29.94,NW,313,0.0,13.0,53,0.00,,,0.00,VWS V12.07,2013-07-05 19:29:00,
2013-07-05 14:34:00,81.1,61.3,29.94,NNE,22,4.0,5.0,51,0.00,,,0.00,VWS V12.07,2013-07-05 19:34:00,
2013-07-05 14:39:00,81.0,61.2,29.94,WNW,286,0.0,5.0,51,0.00,,,0.00,VWS V12.07,2013-07-05 19:39:00,
2013-07-05 14:44:00,80.9,60.5,29.94,West,275,3.0,8.0,50,0.00,,,0.00,VWS V12.07,2013-07-05 19:44:00,
2013-07-05 14:49:00,80.9,61.1,29.94,NW,325,1.0,8.0,51,0.00,,,0.00,VWS V12.07,2013-07-05 19:49:00,
2013-07-05 14:59:00,80.9,62.2,29.94,NNE,26,2.0,8.0,53,0.00,,,0.00,VWS V12.07,2013-07-05 19:59:00,
2013-07-05 15:04:00,81.0,61.7,29.94,NNE,19,2.0,4.0,52,0.00,,,0.00,VWS V12.07,2013-07-05 20:04:00,
2013-07-05 15:09:00,81.0,61.2,29.93,NW,317,2.0,5.0,51,0.00,,,0.00,VWS V12.07,2013-07-05 20:09:00,
2013-07-05 15:19:00,81.1,61.3,29.94,North,5,3.0,8.0,51,0.00,,,0.00,VWS V12.07,2013-07-05 20:19:00,
2013-07-05 15:24:00,80.9,61.6,29.93,East,86,2.0,12.0,52,0.00,,,0.00,VWS V12.07,2013-07-05 20:24:00,
2013-07-05 15:29:00,80.5,61.3,29.93,NNW,337,4.0,12.0,52,0.00,,,0.00,VWS V12.07,2013-07-05 20:29:00,
2013-07-05 15:39:00,80.3,60.0,29.93,WNW,292,1.0,5.0,50,0.00,,,0.00,VWS V12.07,2013-07-05 20:39:00,
2013-07-05 15:44:00,80.3,60.5,29.93,NW,306,2.0,5.0,51,0.00,,,0.00,VWS V12.07,2013-07-05 20:44:00,
2013-07-05 15:54:00,81.1,62.4,29.93,NNW,344,5.0,6.0,53,0.00,,,0.00,VWS V12.07,2013-07-05 20:54:00,
2013-07-05 15:59:00,81.0,61.2,29.93,NW,318,1.0,6.0,51,0.00,,,0.00,VWS V12.07,2013-07-05 20:59:00,
2013-07-05 16:04:00,80.7,61.5,29.92,NNE,25,3.0,3.0,52,0.00,,,0.00,VWS V12.07,2013-07-05 21:04:00,
2013-07-05 16:09:00,80.6,60.8,29.92,NNW,338,4.0,7.0,51,0.00,,,0.00,VWS V12.07,2013-07-05 21:09:00,
2013-07-05 16:14:00,80.5,60.7,29.92,North,355,0.0,7.0,51,0.00,,,0.00,VWS V12.07,2013-07-05 21:14:00,
2013-07-05 16:19:00,80.5,61.3,29.92,NNE,29,0.0,8.0,52,0.00,,,0.00,VWS V12.07,2013-07-05 21:19:00,
2013-07-05 16:24:00,80.5,60.7,29.92,NNW,338,1.0,8.0,51,0.00,,,0.00,VWS V12.07,2013-07-05 21:24:00,
2013-07-05 16:29:00,80.5,61.3,29.92,NNE,32,0.0,8.0,52,0.00,,,0.00,VWS V12.07,2013-07-05 21:29:00,
2013-07-05 16:34:00,80.4,60.6,29.92,West,263,2.0,9.0,51,0.00,,,0.00,VWS V12.07,2013-07-05 21:34:00,
2013-07-05 16:39:00,80.4,60.6,29.92,ENE,67,1.0,9.0,51,0.00,,,0.00,VWS V12.07,2013-07-05 21:39:00,
2013-07-05 16:44:00,80.3,61.6,29.92,North,360,0.0,9.0,53,0.00,,,0.00,VWS V12.07,2013-07-05 21:44:00,
2013-07-05 16:49:00,80.2,61.0,29.91,North,350,4.0,9.0,52,0.00,,,0.00,VWS V12.07,2013-07-05 21:49:00,
2013-07-05 16:54:00,80.2,60.5,29.91,NW,317,1.0,9.0,51,0.00,,,0.00,VWS V12.07,2013-07-05 21:54:00,
2013-07-05 16:59:00,80.3,61.1,29.91,ENE,71,0.0,9.0,52,0.00,,,0.00,VWS V12.07,2013-07-05 21:59:00,
2013-07-05 17:04:00,80.2,61.5,29.91,NE,37,2.0,3.0,53,0.00,,,0.00,VWS V12.07,2013-07-05 22:04:00,
2013-07-05 17:09:00,80.1,62.0,29.91,North,350,0.0,4.0,54,0.00,,,0.00,VWS V12.07,2013-07-05 22:09:00,
2013-07-05 17:14:00,80.0,61.9,29.91,NW,307,1.0,5.0,54,0.00,,,0.00,VWS V12.07,2013-07-05 22:14:00,
2013-07-05 17:19:00,79.8,61.2,29.91,NNW,331,1.0,7.0,53,0.00,,,0.00,VWS V12.07,2013-07-05 22:19:00,
2013-07-05 17:24:00,79.8,61.2,29.91,NW,320,1.0,7.0,53,0.00,,,0.00,VWS V12.07,2013-07-05 22:24:00,
2013-07-05 17:29:00,79.8,60.6,29.91,NNE,18,3.0,7.0,52,0.00,,,0.00,VWS V12.07,2013-07-05 22:29:00,
2013-07-05 17:39:00,79.6,61.0,29.91,NNW,340,0.0,5.0,53,0.00,,,0.00,VWS V12.07,2013-07-05 22:39:00,
2013-07-05 17:44:00,79.5,59.8,29.91,NW,309,0.0,5.0,51,0.00,,,0.00,VWS V12.07,2013-07-05 22:44:00,
2013-07-05 17:49:00,79.4,60.3,29.91,WNW,291,4.0,6.0,52,0.00,,,0.00,VWS V12.07,2013-07-05 22:49:00,
2013-07-05 17:59:00,79.2,61.1,29.91,NNW,333,0.0,6.0,54,0.00,,,0.00,VWS V12.07,2013-07-05 22:59:00,
2013-07-05 18:04:00,79.2,61.1,29.91,North,9,0.0,4.0,54,0.00,,,0.00,VWS V12.07,2013-07-05 23:04:00,
2013-07-05 18:14:00,79.0,60.4,29.91,NE,36,0.0,4.0,53,0.00,,,0.00,VWS V12.07,2013-07-05 23:14:00,
2013-07-05 18:24:00,78.7,60.7,29.91,NE,51,0.0,6.0,54,0.00,,,0.00,VWS V12.07,2013-07-05 23:24:00,
2013-07-05 18:29:00,78.7,61.2,29.91,SW,233,0.0,6.0,55,0.00,,,0.00,VWS V12.07,2013-07-05 23:29:00,
2013-07-05 18:34:00,78.4,60.9,29.91,NW,323,0.0,4.0,55,0.00,,,0.00,VWS V12.07,2013-07-05 23:34:00,
2013-07-05 18:44:00,78.1,61.1,29.90,NW,323,0.0,6.0,56,0.00,,,0.00,VWS V12.07,2013-07-05 23:44:00,
2013-07-05 18:49:00,78.0,61.0,29.90,ENE,78,0.0,6.0,56,0.00,,,0.00,VWS V12.07,2013-07-05 23:49:00,
2013-07-05 18:54:00,77.9,62.4,29.90,NE,45,0.0,6.0,59,0.00,,,0.00,VWS V12.07,2013-07-05 23:54:00,
2013-07-05 18:59:00,77.8,61.9,29.90,NNW,342,1.0,6.0,58,0.00,,,0.00,VWS V12.07,2013-07-05 23:59:00,
2013-07-05 19:04:00,77.5,62.5,29.91,NNW,342,0.0,0.0,60,0.00,,,0.00,VWS V12.07,2013-07-06 00:04:00,
2013-07-05 19:09:00,77.2,62.2,29.91,NW,325,0.0,3.0,60,0.00,,,0.00,VWS V12.07,2013-07-06 00:09:00,
2013-07-05 19:14:00,76.9,61.5,29.91,NNW,329,0.0,4.0,59,0.00,,,0.00,VWS V12.07,2013-07-06 00:14:00,
2013-07-05 19:24:00,76.8,61.9,29.91,NNE,32,0.0,4.0,60,0.00,,,0.00,VWS V12.07,2013-07-06 00:24:00,
2013-07-05 19:34:00,76.4,62.0,29.91,North,5,0.0,2.0,61,0.00,,,0.00,VWS V12.07,2013-07-06 00:34:00,
2013-07-05 19:44:00,75.8,61.4,29.91,North,360,1.0,2.0,61,0.00,,,0.00,VWS V12.07,2013-07-06 00:44:00,
2013-07-05 19:54:00,75.2,62.2,29.91,North,5,0.0,2.0,64,0.00,,,0.00,VWS V12.07,2013-07-06 00:54:00,
2013-07-05 19:59:00,74.8,61.8,29.91,North,360,0.0,2.0,64,0.00,,,0.00,VWS V12.07,2013-07-06 00:59:00,
2013-07-05 20:04:00,74.6,62.1,29.91,North,5,0.0,1.0,65,0.00,,,0.00,VWS V12.07,2013-07-06 01:04:00,
2013-07-05 20:09:00,74.3,60.9,29.92,NNW,343,0.0,3.0,63,0.00,,,0.00,VWS V12.07,2013-07-06 01:09:00,
2013-07-05 20:14:00,74.2,61.7,29.91,NNW,342,0.0,3.0,65,0.00,,,0.00,VWS V12.07,2013-07-06 01:14:00,
2013-07-05 20:19:00,74.0,61.9,29.91,NE,45,1.0,3.0,66,0.00,,,0.00,VWS V12.07,2013-07-06 01:19:00,
2013-07-05 20:24:00,73.7,61.7,29.91,NE,45,0.0,3.0,66,0.00,,,0.00,VWS V12.07,2013-07-06 01:24:00,
2013-07-05 20:29:00,73.4,62.2,29.91,NE,46,0.0,3.0,68,0.00,,,0.00,VWS V12.07,2013-07-06 01:29:00,
2013-07-05 20:34:00,73.1,61.9,29.91,NE,46,0.0,0.0,68,0.00,,,0.00,VWS V12.07,2013-07-06 01:34:00,
2013-07-05 20:39:00,72.8,61.6,29.92,NNE,24,0.0,2.0,68,0.00,,,0.00,VWS V12.07,2013-07-06 01:39:00,
2013-07-05 20:49:00,72.4,61.7,29.92,NNE,22,0.0,2.0,69,0.00,,,0.00,VWS V12.07,2013-07-06 01:49:00,
2013-07-05 20:54:00,72.1,61.4,29.91,NNE,22,0.0,2.0,69,0.00,,,0.00,VWS V12.07,2013-07-06 01:54:00,
2013-07-05 20:59:00,71.9,61.6,29.91,NNE,22,0.0,2.0,70,0.00,,,0.00,VWS V12.07,2013-07-06 01:59:00,
2013-07-05 21:04:00,71.7,61.0,29.91,NNE,22,0.0,0.0,69,0.00,,,0.00,VWS V12.07,2013-07-06 02:04:00,
2013-07-05 21:09:00,71.4,61.1,29.92,NNE,22,0.0,1.0,70,0.00,,,0.00,VWS V12.07,2013-07-06 02:09:00,
2013-07-05 21:14:00,71.3,61.4,29.92,NNE,22,0.0,1.0,71,0.00,,,0.00,VWS V12.07,2013-07-06 02:14:00,
2013-07-05 21:19:00,71.0,61.1,29.91,NNE,22,0.0,1.0,71,0.00,,,0.00,VWS V12.07,2013-07-06 02:19:00,
2013-07-05 21:29:00,70.8,60.9,29.92,NW,323,2.0,2.0,71,0.00,,,0.00,VWS V12.07,2013-07-06 02:29:00,
2013-07-05 21:34:00,70.8,60.9,29.92,NE,56,1.0,2.0,71,0.00,,,0.00,VWS V12.07,2013-07-06 02:34:00,
2013-07-05 21:39:00,70.8,61.3,29.92,NE,54,0.0,2.0,72,0.00,,,0.00,VWS V12.07,2013-07-06 02:39:00,
2013-07-05 21:44:00,70.8,61.3,29.92,NNE,29,0.0,2.0,72,0.00,,,0.00,VWS V12.07,2013-07-06 02:44:00,
2013-07-05 21:49:00,70.7,61.2,29.92,NNW,340,0.0,2.0,72,0.00,,,0.00,VWS V12.07,2013-07-06 02:49:00,
2013-07-05 21:54:00,70.6,60.8,29.92,NNW,340,1.0,2.0,71,0.00,,,0.00,VWS V12.07,2013-07-06 02:54:00,
2013-07-05 21:59:00,70.5,61.0,29.92,NNW,348,1.0,2.0,72,0.00,,,0.00,VWS V12.07,2013-07-06 02:59:00,
2013-07-05 22:09:00,70.4,61.3,29.92,NNW,346,0.0,2.0,73,0.00,,,0.00,VWS V12.07,2013-07-06 03:09:00,
2013-07-05 22:14:00,70.3,61.2,29.92,NNW,346,0.0,2.0,73,0.00,,,0.00,VWS V12.07,2013-07-06 03:14:00,
2013-07-05 22:19:00,70.2,61.2,29.92,NNW,347,0.0,2.0,73,0.00,,,0.00,VWS V12.07,2013-07-06 03:19:00,
2013-07-05 22:24:00,70.0,61.3,29.92,NNW,347,0.0,2.0,74,0.00,,,0.00,VWS V12.07,2013-07-06 03:24:00,
2013-07-05 22:29:00,69.7,61.0,29.92,North,355,0.0,2.0,74,0.00,,,0.00,VWS V12.07,2013-07-06 03:29:00,
2013-07-05 22:34:00,69.5,60.9,29.92,North,355,0.0,0.0,74,0.00,,,0.00,VWS V12.07,2013-07-06 03:34:00,
2013-07-05 22:39:00,69.4,60.8,29.92,North,355,0.0,1.0,74,0.00,,,0.00,VWS V12.07,2013-07-06 03:39:00,
2013-07-05 22:44:00,69.2,61.0,29.92,North,355,1.0,1.0,75,0.00,,,0.00,VWS V12.07,2013-07-06 03:44:00,
2013-07-05 22:49:00,69.1,60.8,29.92,ENE,68,0.0,1.0,75,0.00,,,0.00,VWS V12.07,2013-07-06 03:49:00,
2013-07-05 22:54:00,69.0,60.8,29.92,ENE,68,0.0,1.0,75,0.00,,,0.00,VWS V12.07,2013-07-06 03:54:00,
2013-07-05 23:04:00,69.0,61.1,29.92,NW,326,1.0,1.0,76,0.00,,,0.00,VWS V12.07,2013-07-06 04:04:00,
2013-07-05 23:09:00,68.9,61.0,29.92,NNE,14,0.0,2.0,76,0.00,,,0.00,VWS V12.07,2013-07-06 04:09:00,
2013-07-05 23:19:00,69.0,61.1,29.92,ENE,69,1.0,2.0,76,0.00,,,0.00,VWS V12.07,2013-07-06 04:19:00,
2013-07-05 23:24:00,69.2,61.0,29.92,North,349,1.0,3.0,75,0.00,,,0.00,VWS V12.07,2013-07-06 04:24:00,
2013-07-05 23:29:00,69.4,61.1,29.92,NNW,348,0.0,3.0,75,0.00,,,0.00,VWS V12.07,2013-07-06 04:29:00,
2013-07-05 23:39:00,69.8,61.5,29.92,North,360,0.0,5.0,75,0.00,,,0.00,VWS V12.07,2013-07-06 04:39:00,
2013-07-05 23:44:00,69.7,61.4,29.93,North,355,0.0,5.0,75,0.00,,,0.00,VWS V12.07,2013-07-06 04:44:00,
2013-07-05 23:49:00,69.7,61.4,29.93,North,355,2.0,5.0,75,0.00,,,0.00,VWS V12.07,2013-07-06 04:49:00,
2013-07-05 23:54:00,69.5,61.6,29.93,NNE,32,0.0,5.0,76,0.00,,,0.00,VWS V12.07,2013-07-06 04:54:00,
2013-07-05 23:59:00,69.6,61.3,29.93,NE,34,1.0,5.0,75,0.00,,,0.00,VWS V12.07,2013-07-06 04:59:00,